createdAt,value
2018-09-09T00:00:49.276Z,3.63
2018-09-09T00:03:17.629Z,3.77
2018-09-09T00:05:45.976Z,4.10
2018-09-09T00:08:14.337Z,3.77
2018-09-09T00:10:45.741Z,3.83
2018-09-09T00:13:14.092Z,3.47
2018-09-09T00:15:42.513Z,3.60
2018-09-09T00:18:10.880Z,3.43
2018-09-09T00:20:39.241Z,3.93
2018-09-09T00:23:07.733Z,3.57
2018-09-09T00:25:36.305Z,3.83
2018-09-09T00:28:05.055Z,3.13
2018-09-09T00:30:33.407Z,3.70
2018-09-09T00:33:01.738Z,3.93
2018-09-09T00:35:30.137Z,3.93
2018-09-09T00:37:58.567Z,3.80
2018-09-09T00:40:26.996Z,3.80
2018-09-09T00:42:55.380Z,3.40
2018-09-09T00:45:23.999Z,3.50
2018-09-09T00:47:52.393Z,3.63
2018-09-09T00:50:25.962Z,4.50
2018-09-09T00:52:59.634Z,4.17
2018-09-09T00:55:28.137Z,4.10
2018-09-09T00:57:56.591Z,4.60
2018-09-09T01:00:30.253Z,4.27
2018-09-09T01:02:58.600Z,4.37
2018-09-09T01:05:26.964Z,4.70
2018-09-09T01:07:55.508Z,4.20
2018-09-09T01:10:23.807Z,4.23
2018-09-09T01:12:52.191Z,3.97
2018-09-09T01:15:20.701Z,4.30
2018-09-09T01:17:49.072Z,4.07
2018-09-09T01:20:17.461Z,4.50
2018-09-09T01:22:45.793Z,4.50
2018-09-09T01:25:14.196Z,3.87
2018-09-09T01:27:42.550Z,3.80
2018-09-09T01:30:10.911Z,4.03
2018-09-09T01:32:39.443Z,4.10
2018-09-09T01:35:07.765Z,3.93
2018-09-09T01:37:36.110Z,3.50
2018-09-09T01:40:04.539Z,3.93
2018-09-09T01:42:32.853Z,3.73
2018-09-09T01:45:01.208Z,4.17
2018-09-09T01:47:29.654Z,3.87
2018-09-09T01:49:58.688Z,3.60
2018-09-09T01:52:27.093Z,3.80
2018-09-09T01:54:55.404Z,4.10
2018-09-09T01:57:23.760Z,4.60
2018-09-09T01:59:52.235Z,4.10
2018-09-09T02:02:20.628Z,4.80
2018-09-09T02:04:48.973Z,4.00
2018-09-09T02:07:17.276Z,4.83
2018-09-09T02:09:45.697Z,4.23
2018-09-09T02:12:14.006Z,5.20
2018-09-09T02:14:42.396Z,4.40
2018-09-09T02:17:10.734Z,4.37
2018-09-09T02:19:39.099Z,4.10
2018-09-09T02:22:07.504Z,4.00
2018-09-09T02:24:35.970Z,4.70
2018-09-09T02:27:04.311Z,4.30
2018-09-09T02:29:32.659Z,4.33
2018-09-09T02:32:01.001Z,4.63
2018-09-09T02:34:29.374Z,4.07
2018-09-09T02:36:58.042Z,3.90
2018-09-09T02:39:26.412Z,4.23
2018-09-09T02:41:54.715Z,4.80
2018-09-09T02:44:23.027Z,4.50
2018-09-09T02:46:51.366Z,4.50
2018-09-09T02:49:19.756Z,3.80
2018-09-09T02:51:48.107Z,4.10
2018-09-09T02:54:16.583Z,4.50
2018-09-09T02:56:45.053Z,3.80
2018-09-09T02:59:13.358Z,4.20
2018-09-09T03:01:41.676Z,4.40
2018-09-09T03:04:10.018Z,4.03
2018-09-09T03:06:38.346Z,4.77
2018-09-09T03:09:06.708Z,4.40
2018-09-09T03:11:35.221Z,5.33
2018-09-09T03:14:03.519Z,4.10
2018-09-09T03:16:31.852Z,4.17
2018-09-09T03:19:00.227Z,4.50
2018-09-09T03:21:28.526Z,4.33
2018-09-09T03:23:57.457Z,4.43
2018-09-09T03:26:25.766Z,4.40
2018-09-09T03:28:54.133Z,4.10
2018-09-09T03:31:22.447Z,4.13
2018-09-09T03:33:50.787Z,4.07
2018-09-09T03:36:19.142Z,4.30
2018-09-09T03:38:47.486Z,3.57
2018-09-09T03:41:16.503Z,3.90
2018-09-09T03:43:44.829Z,4.43
2018-09-09T03:46:13.250Z,4.33
2018-09-09T03:48:41.598Z,4.00
2018-09-09T03:51:09.952Z,4.47
2018-09-09T03:53:38.351Z,4.43
2018-09-09T03:56:06.710Z,4.47
2018-09-09T03:58:35.130Z,4.30
2018-09-09T04:01:03.523Z,4.77
2018-09-09T04:03:31.851Z,4.20
2018-09-09T04:06:00.245Z,4.10
2018-09-09T04:08:28.590Z,3.47
2018-09-09T04:10:57.025Z,5.17
2018-09-09T04:13:25.615Z,4.90
2018-09-09T04:15:53.974Z,4.70
2018-09-09T04:18:22.306Z,4.87
2018-09-09T04:20:50.795Z,4.20
2018-09-09T04:23:19.206Z,3.90
2018-09-09T04:25:47.660Z,4.07
2018-09-09T04:28:15.996Z,4.43
2018-09-09T04:30:44.371Z,4.03
2018-09-09T04:33:12.649Z,4.60
2018-09-09T04:35:40.940Z,4.30
2018-09-09T04:38:09.265Z,3.87
2018-09-09T04:40:37.575Z,3.70
2018-09-09T04:43:06.009Z,3.80
2018-09-09T04:45:34.384Z,4.50
2018-09-09T04:48:02.705Z,4.30
2018-09-09T04:50:31.061Z,4.27
2018-09-09T04:52:59.585Z,4.33
2018-09-09T04:55:27.982Z,4.43
2018-09-09T04:57:56.445Z,5.47
2018-09-09T05:00:24.837Z,4.50
2018-09-09T05:02:53.157Z,4.93
2018-09-09T05:05:21.485Z,3.37
2018-09-09T05:07:49.889Z,3.80
2018-09-09T05:10:18.439Z,4.53
2018-09-09T05:12:46.784Z,3.70
2018-09-09T05:15:15.315Z,4.30
2018-09-09T05:17:43.633Z,4.00
2018-09-09T05:20:11.978Z,3.60
2018-09-09T05:22:40.297Z,3.90
2018-09-09T05:25:08.606Z,3.87
2018-09-09T05:27:37.146Z,4.10
2018-09-09T05:30:06.563Z,3.80
2018-09-09T05:32:34.949Z,3.90
2018-09-09T05:35:03.309Z,3.77
2018-09-09T05:37:31.948Z,4.23
2018-09-09T05:40:00.309Z,3.57
2018-09-09T05:42:28.667Z,3.97
2018-09-09T05:44:57.798Z,3.47
2018-09-09T05:47:26.153Z,3.73
2018-09-09T05:49:54.500Z,4.07
2018-09-09T05:52:22.851Z,4.60
2018-09-09T05:54:54.487Z,3.50
2018-09-09T05:57:22.922Z,3.77
2018-09-09T05:59:51.270Z,3.33
2018-09-09T06:02:19.614Z,3.80
2018-09-09T06:04:47.945Z,3.60
2018-09-09T06:07:16.502Z,3.03
2018-09-09T06:09:44.889Z,3.60
2018-09-09T06:12:13.298Z,3.80
2018-09-09T06:14:41.649Z,3.87
2018-09-09T06:17:10.106Z,3.50
2018-09-09T06:19:38.547Z,3.57
2018-09-09T06:22:06.875Z,3.10
2018-09-09T06:24:35.310Z,3.43
2018-09-09T06:27:03.682Z,3.67
2018-09-09T06:29:32.066Z,3.40
2018-09-09T06:32:00.407Z,3.60
2018-09-09T06:34:28.886Z,3.00
2018-09-09T06:36:57.568Z,2.80
2018-09-09T06:39:26.065Z,3.30
2018-09-09T06:41:54.966Z,3.30
2018-09-09T06:44:24.687Z,3.83
2018-09-09T06:46:53.087Z,2.93
2018-09-09T06:49:21.760Z,3.47
2018-09-09T06:51:50.307Z,2.73
2018-09-09T06:54:18.724Z,3.17
2018-09-09T06:56:47.114Z,2.90
2018-09-09T06:59:15.574Z,3.00
2018-09-09T07:01:43.963Z,3.20
2018-09-09T07:04:12.344Z,3.20
2018-09-09T07:06:40.682Z,3.40
2018-09-09T07:09:09.878Z,3.40
2018-09-09T07:11:38.457Z,3.20
2018-09-09T07:14:06.887Z,3.00
2018-09-09T07:16:35.269Z,3.20
2018-09-09T07:19:03.690Z,3.20
2018-09-09T07:21:32.151Z,2.60
2018-09-09T07:24:00.541Z,3.17
2018-09-09T07:26:29.180Z,3.70
2018-09-09T07:28:57.604Z,2.83
2018-09-09T07:31:25.995Z,2.90
2018-09-09T07:33:54.342Z,3.30
2018-09-09T07:36:22.814Z,3.03
2018-09-09T07:38:51.217Z,2.90
2018-09-09T07:41:19.693Z,2.40
2018-09-09T07:43:48.165Z,3.10
2018-09-09T07:46:16.544Z,2.97
2018-09-09T07:48:47.222Z,3.80
2018-09-09T07:51:16.695Z,2.90
2018-09-09T07:53:45.038Z,3.33
2018-09-09T07:56:13.491Z,3.23
2018-09-09T07:58:41.880Z,3.10
2018-09-09T08:01:10.280Z,2.90
2018-09-09T08:03:38.670Z,3.47
2018-09-09T08:06:07.278Z,3.10
2018-09-09T08:08:35.664Z,3.13
2018-09-09T08:11:04.859Z,2.83
2018-09-09T08:13:33.238Z,3.20
2018-09-09T08:16:02.413Z,2.67
2018-09-09T08:18:31.686Z,3.63
2018-09-09T08:21:00.154Z,2.90
2018-09-09T08:23:28.520Z,3.13
2018-09-09T08:25:57.125Z,3.30
2018-09-09T08:28:26.110Z,3.00
2018-09-09T08:30:54.506Z,3.37
2018-09-09T08:33:23.003Z,2.67
2018-09-09T08:35:51.557Z,2.60
2018-09-09T08:38:20.627Z,3.13
2018-09-09T08:40:48.984Z,3.07
2018-09-09T08:43:17.572Z,3.10
2018-09-09T08:45:45.946Z,2.80
2018-09-09T08:48:14.345Z,3.10
2018-09-09T08:50:42.757Z,2.83
2018-09-09T08:53:11.216Z,2.70
2018-09-09T08:55:39.664Z,3.27
2018-09-09T08:58:08.097Z,2.67
2018-09-09T09:00:36.545Z,2.60
2018-09-09T09:03:05.021Z,2.43
2018-09-09T09:05:33.385Z,2.10
2018-09-09T09:08:01.943Z,1.90
2018-09-09T09:10:30.336Z,2.00
2018-09-09T09:12:59.599Z,1.83
2018-09-09T09:15:28.037Z,2.10
2018-09-09T09:17:56.679Z,2.00
2018-09-09T09:20:25.391Z,2.67
2018-09-09T09:22:53.801Z,2.00
2018-09-09T09:25:22.891Z,1.60
2018-09-09T09:27:51.398Z,2.20
2018-09-09T09:30:19.932Z,1.50
2018-09-09T09:32:48.971Z,1.93
2018-09-09T09:35:17.402Z,1.63
2018-09-09T09:37:48.674Z,1.60
2018-09-09T09:40:17.278Z,1.67
2018-09-09T09:42:45.693Z,1.40
2018-09-09T09:45:14.105Z,1.57
2018-09-09T09:47:42.584Z,1.40
2018-09-09T09:50:11.320Z,1.60
2018-09-09T09:52:39.854Z,1.67
2018-09-09T09:55:08.526Z,1.73
2018-09-09T09:57:37.374Z,1.57
2018-09-09T10:00:05.820Z,1.63
2018-09-09T10:02:34.268Z,1.70
2018-09-09T10:05:02.700Z,1.80
2018-09-09T10:07:31.118Z,2.30
2018-09-09T10:10:00.559Z,2.47
2018-09-09T10:12:29.083Z,1.87
2018-09-09T10:14:57.877Z,1.70
2018-09-09T10:17:26.236Z,1.63
2018-09-09T10:19:54.719Z,1.70
2018-09-09T10:22:23.226Z,1.57
2018-09-09T10:24:51.676Z,1.77
2018-09-09T10:27:20.092Z,1.43
2018-09-09T10:29:48.610Z,1.30
2018-09-09T10:32:17.009Z,1.63
2018-09-09T10:34:45.367Z,1.77
2018-09-09T10:37:13.724Z,1.70
2018-09-09T10:39:42.070Z,1.70
2018-09-09T10:42:10.443Z,1.53
2018-09-09T10:44:38.816Z,1.33
2018-09-09T10:47:07.635Z,1.37
2018-09-09T10:49:35.987Z,1.57
2018-09-09T10:52:04.303Z,2.53
2018-09-09T10:54:32.727Z,1.20
2018-09-09T10:57:01.123Z,1.43
2018-09-09T10:59:29.467Z,1.47
2018-09-09T11:01:57.944Z,1.30
2018-09-09T11:04:26.456Z,1.43
2018-09-09T11:06:55.793Z,1.37
2018-09-09T11:09:24.322Z,1.30
2018-09-09T11:11:52.805Z,1.50
2018-09-09T11:14:21.248Z,1.67
2018-09-09T11:16:49.730Z,1.23
2018-09-09T11:19:18.190Z,1.43
2018-09-09T11:21:46.557Z,1.30
2018-09-09T11:24:14.947Z,1.50
2018-09-09T11:26:43.349Z,1.47
2018-09-09T11:29:11.716Z,1.50
2018-09-09T11:31:40.144Z,1.30
2018-09-09T11:34:08.510Z,1.40
2018-09-09T11:36:36.965Z,1.30
2018-09-09T11:39:09.578Z,1.70
2018-09-09T11:41:38.044Z,1.50
2018-09-09T11:44:06.514Z,1.47
2018-09-09T11:46:34.857Z,1.50
2018-09-09T11:49:03.773Z,1.40
2018-09-09T11:51:32.587Z,1.30
2018-09-09T11:54:01.021Z,1.47
2018-09-09T11:56:29.414Z,1.67
2018-09-09T11:58:58.872Z,1.50
2018-09-09T12:01:27.268Z,1.50
2018-09-09T12:03:55.648Z,1.40
2018-09-09T12:06:24.155Z,1.60
2018-09-09T12:08:52.620Z,1.50
2018-09-09T12:11:21.558Z,1.30
2018-09-09T12:13:50.531Z,1.50
2018-09-09T12:16:19.214Z,1.37
2018-09-09T12:18:47.571Z,1.60
2018-09-09T12:21:16.070Z,1.30
2018-09-09T12:23:44.446Z,1.60
2018-09-09T12:26:12.871Z,1.10
2018-09-09T12:28:41.250Z,1.20
2018-09-09T12:31:09.640Z,1.30
2018-09-09T12:33:37.962Z,1.60
2018-09-09T12:36:07.577Z,1.43
2018-09-09T12:38:36.018Z,1.23
2018-09-09T12:41:04.372Z,1.03
2018-09-09T12:43:37.963Z,1.57
2018-09-09T12:46:11.785Z,1.20
2018-09-09T12:48:45.548Z,1.20
2018-09-09T12:51:13.905Z,1.20
2018-09-09T12:53:42.892Z,1.33
2018-09-09T12:56:11.334Z,1.40
2018-09-09T12:58:39.665Z,1.33
2018-09-09T13:01:08.202Z,1.20
2018-09-09T13:03:36.582Z,1.37
2018-09-09T13:06:04.993Z,1.27
2018-09-09T13:08:33.434Z,1.40
2018-09-09T13:11:01.839Z,1.30
2018-09-09T13:13:30.245Z,1.10
2018-09-09T13:15:58.772Z,1.23
2018-09-09T13:18:27.238Z,1.40
2018-09-09T13:20:55.765Z,1.20
2018-09-09T13:23:24.154Z,1.33
2018-09-09T13:25:53.334Z,1.43
2018-09-09T13:28:21.768Z,1.50
2018-09-09T13:30:50.346Z,1.37
2018-09-09T13:33:18.745Z,1.50
2018-09-09T13:35:47.068Z,1.30
2018-09-09T13:38:15.441Z,1.20
2018-09-09T13:40:44.743Z,1.50
2018-09-09T13:43:13.274Z,1.57
2018-09-09T13:45:41.666Z,1.43
2018-09-09T13:48:11.160Z,1.60
2018-09-09T13:50:39.498Z,1.40
2018-09-09T13:53:12.081Z,1.40
2018-09-09T13:55:40.558Z,1.40
2018-09-09T13:58:08.933Z,1.70
2018-09-09T14:00:37.476Z,1.50
2018-09-09T14:03:05.836Z,1.30
2018-09-09T14:05:34.183Z,1.50
2018-09-09T14:08:03.120Z,1.50
2018-09-09T14:10:31.516Z,1.50
2018-09-09T14:12:59.947Z,1.43
2018-09-09T14:15:28.602Z,1.60
2018-09-09T14:17:57.129Z,1.40
2018-09-09T14:20:25.611Z,1.40
2018-09-09T14:22:54.007Z,1.50
2018-09-09T14:25:22.352Z,1.50
2018-09-09T14:27:50.778Z,1.30
2018-09-09T14:30:19.297Z,1.23
2018-09-09T14:32:47.657Z,1.70
2018-09-09T14:35:16.080Z,1.63
2018-09-09T14:37:44.497Z,1.80
2018-09-09T14:40:12.944Z,1.60
2018-09-09T14:42:42.089Z,1.50
2018-09-09T14:45:10.459Z,1.80
2018-09-09T14:47:38.807Z,1.50
2018-09-09T14:50:07.135Z,1.67
2018-09-09T14:52:35.550Z,1.73
2018-09-09T14:55:04.282Z,1.70
2018-09-09T14:57:32.749Z,1.50
2018-09-09T15:00:01.777Z,1.60
2018-09-09T15:02:30.228Z,1.40
2018-09-09T15:04:58.755Z,1.53
2018-09-09T15:07:27.162Z,1.60
2018-09-09T15:09:55.589Z,1.87
2018-09-09T15:12:24.121Z,1.40
2018-09-09T15:14:53.281Z,1.40
2018-09-09T15:17:21.624Z,1.40
2018-09-09T15:19:50.027Z,1.70
2018-09-09T15:22:18.386Z,1.43
2018-09-09T15:24:46.782Z,1.30
2018-09-09T15:27:15.197Z,1.53
2018-09-09T15:29:43.578Z,1.43
2018-09-09T15:32:12.039Z,1.70
2018-09-09T15:34:40.472Z,1.30
2018-09-09T15:37:08.841Z,1.60
2018-09-09T15:39:37.271Z,1.37
2018-09-09T15:42:05.623Z,1.50
2018-09-09T15:44:34.867Z,1.77
2018-09-09T15:47:03.554Z,1.30
2018-09-09T15:49:32.811Z,1.53
2018-09-09T15:52:01.267Z,1.63
2018-09-09T15:54:29.838Z,1.60
2018-09-09T15:56:58.728Z,1.40
2018-09-09T15:59:27.111Z,1.63
2018-09-09T16:01:55.859Z,1.57
2018-09-09T16:04:24.312Z,1.50
2018-09-09T16:06:53.038Z,1.47
2018-09-09T16:09:23.772Z,1.50
2018-09-09T16:11:52.333Z,1.50
2018-09-09T16:14:20.961Z,3.43
2018-09-09T16:16:49.427Z,2.70
2018-09-09T16:19:17.900Z,1.73
2018-09-09T16:21:46.306Z,1.70
2018-09-09T16:24:14.683Z,1.60
2018-09-09T16:26:43.007Z,1.43
2018-09-09T16:29:11.414Z,1.60
2018-09-09T16:31:39.770Z,1.90
2018-09-09T16:34:08.534Z,1.53
2018-09-09T16:36:37.024Z,1.73
2018-09-09T16:39:06.788Z,1.93
2018-09-09T16:41:35.235Z,1.87
2018-09-09T16:44:03.721Z,2.17
2018-09-09T16:46:32.317Z,1.70
2018-09-09T16:49:01.005Z,1.80
2018-09-09T16:51:29.737Z,1.70
2018-09-09T16:53:58.555Z,1.43
2018-09-09T16:56:26.926Z,1.80
2018-09-09T16:58:55.343Z,1.87
2018-09-09T17:01:23.737Z,1.63
2018-09-09T17:03:52.266Z,1.70
2018-09-09T17:06:21.164Z,1.77
2018-09-09T17:08:49.615Z,1.60
2018-09-09T17:11:18.025Z,1.63
2018-09-09T17:13:46.458Z,1.97
2018-09-09T17:16:14.944Z,1.60
2018-09-09T17:18:43.321Z,1.80
2018-09-09T17:21:11.755Z,1.50
2018-09-09T17:23:40.230Z,1.77
2018-09-09T17:26:08.652Z,1.80
2018-09-09T17:28:37.361Z,2.10
2018-09-09T17:31:05.773Z,2.00
2018-09-09T17:33:34.485Z,2.10
2018-09-09T17:36:11.685Z,2.10
2018-09-09T17:38:40.086Z,1.83
2018-09-09T17:41:08.458Z,1.53
2018-09-09T17:43:37.036Z,1.50
2018-09-09T17:46:05.476Z,1.90
2018-09-09T17:48:34.074Z,1.57
2018-09-09T17:51:02.470Z,1.90
2018-09-09T17:53:31.179Z,2.30
2018-09-09T17:55:59.957Z,1.73
2018-09-09T17:58:28.355Z,1.50
2018-09-09T18:00:56.872Z,1.77
2018-09-09T18:03:25.240Z,1.63
2018-09-09T18:05:53.616Z,2.10
2018-09-09T18:08:22.105Z,1.77
2018-09-09T18:10:50.593Z,1.70
2018-09-09T18:13:19.671Z,2.10
2018-09-09T18:15:48.105Z,3.30
2018-09-09T18:18:16.479Z,2.13
2018-09-09T18:20:44.837Z,2.33
2018-09-09T18:23:13.212Z,2.57
2018-09-09T18:25:41.570Z,2.67
2018-09-09T18:28:10.729Z,4.97
2018-09-09T18:30:39.296Z,4.60
2018-09-09T18:33:07.666Z,2.90
2018-09-09T18:35:36.053Z,2.40
2018-09-09T18:38:04.634Z,2.00
2018-09-09T18:40:33.014Z,1.97
2018-09-09T18:43:01.665Z,2.10
2018-09-09T18:45:30.154Z,2.70
2018-09-09T18:47:58.947Z,1.90
2018-09-09T18:50:27.351Z,2.23
2018-09-09T18:52:55.757Z,1.90
2018-09-09T18:55:25.210Z,2.50
2018-09-09T18:57:54.378Z,2.57
2018-09-09T19:00:23.090Z,2.60
2018-09-09T19:02:51.470Z,2.50
2018-09-09T19:05:19.907Z,2.00
2018-09-09T19:07:48.344Z,2.20
2018-09-09T19:10:16.743Z,1.83
2018-09-09T19:12:45.546Z,2.00
2018-09-09T19:15:14.021Z,1.90
2018-09-09T19:17:42.452Z,1.67
2018-09-09T19:20:10.945Z,2.10
2018-09-09T19:22:39.378Z,1.67
2018-09-09T19:25:07.742Z,1.90
2018-09-09T19:27:36.231Z,1.73
2018-09-09T19:30:04.635Z,1.93
2018-09-09T19:32:33.006Z,1.80
2018-09-09T19:35:01.991Z,1.60
2018-09-09T19:37:30.515Z,1.80
2018-09-09T19:40:00.274Z,2.10
2018-09-09T19:42:28.678Z,1.80
2018-09-09T19:44:57.681Z,2.00
2018-09-09T19:47:26.191Z,2.10
2018-09-09T19:49:54.571Z,2.20
2018-09-09T19:52:23.097Z,2.30
2018-09-09T19:54:51.861Z,1.80
2018-09-09T19:57:20.311Z,2.03
2018-09-09T19:59:48.794Z,2.40
2018-09-09T20:02:17.647Z,2.63
2018-09-09T20:04:47.081Z,1.83
2018-09-09T20:07:16.495Z,1.77
2018-09-09T20:09:46.650Z,2.23
2018-09-09T20:12:16.302Z,2.33
2018-09-09T20:14:45.090Z,1.90
2018-09-09T20:17:13.901Z,2.73
2018-09-09T20:19:42.300Z,2.10
2018-09-09T20:22:12.126Z,2.03
2018-09-09T20:24:44.702Z,2.40
2018-09-09T20:27:13.295Z,2.77
2018-09-09T20:29:41.761Z,2.33
2018-09-09T20:32:10.368Z,2.30
2018-09-09T20:34:38.909Z,2.53
2018-09-09T20:37:07.873Z,2.50
2018-09-09T20:39:36.378Z,2.40
2018-09-09T20:42:04.905Z,2.50
2018-09-09T20:44:33.265Z,2.17
2018-09-09T20:47:01.825Z,3.20
2018-09-09T20:49:30.343Z,2.50
2018-09-09T20:51:59.366Z,2.67
2018-09-09T20:54:27.783Z,2.80
2018-09-09T20:56:56.537Z,2.30
2018-09-09T20:59:25.203Z,2.00
2018-09-09T21:01:53.778Z,1.93
2018-09-09T21:04:22.235Z,2.13
2018-09-09T21:06:51.036Z,2.10
2018-09-09T21:09:19.560Z,2.20
2018-09-09T21:11:55.060Z,2.03
2018-09-09T21:14:24.655Z,2.30
2018-09-09T21:16:53.295Z,2.50
2018-09-09T21:19:21.752Z,2.40
2018-09-09T21:21:50.681Z,2.77
2018-09-09T21:24:19.273Z,1.90
2018-09-09T21:26:48.273Z,2.10
2018-09-09T21:29:16.663Z,2.40
2018-09-09T21:31:45.177Z,2.20
2018-09-09T21:34:13.985Z,2.20
2018-09-09T21:36:42.443Z,2.47
2018-09-09T21:39:11.616Z,2.20
2018-09-09T21:41:40.686Z,2.30
2018-09-09T21:44:09.408Z,2.30
2018-09-09T21:46:37.893Z,1.93
2018-09-09T21:49:06.770Z,2.50
2018-09-09T21:51:35.202Z,2.20
2018-09-09T21:54:03.661Z,2.60
2018-09-09T21:56:33.039Z,2.60
2018-09-09T21:59:01.515Z,2.10
2018-09-09T22:01:35.252Z,3.03
2018-09-09T22:04:04.079Z,2.70
2018-09-09T22:06:32.447Z,2.40
2018-09-09T22:09:00.949Z,2.10
2018-09-09T22:11:29.424Z,2.40
2018-09-09T22:14:00.005Z,2.10
2018-09-09T22:16:28.491Z,2.40
2018-09-09T22:18:57.117Z,2.23
2018-09-09T22:21:25.643Z,2.47
2018-09-09T22:23:54.072Z,2.40
2018-09-09T22:26:22.458Z,2.57
2018-09-09T22:28:51.099Z,2.70
2018-09-09T22:31:19.545Z,2.80
2018-09-09T22:33:47.998Z,2.07
2018-09-09T22:36:16.326Z,2.43
2018-09-09T22:38:44.658Z,2.50
2018-09-09T22:41:12.989Z,2.57
2018-09-09T22:43:41.318Z,2.40
2018-09-09T22:46:09.612Z,2.30
2018-09-09T22:48:37.985Z,2.17
2018-09-09T22:51:06.330Z,2.53
2018-09-09T22:53:34.655Z,1.90
2018-09-09T22:56:03.041Z,2.10
2018-09-09T22:58:31.371Z,2.23
2018-09-09T23:00:59.699Z,2.57
2018-09-09T23:03:28.069Z,2.47
2018-09-09T23:05:56.410Z,2.10
2018-09-09T23:08:24.838Z,2.80
2018-09-09T23:10:53.176Z,2.50
2018-09-09T23:13:21.498Z,2.20
2018-09-09T23:15:50.000Z,2.30
2018-09-09T23:18:18.309Z,2.17
2018-09-09T23:20:46.653Z,2.17
2018-09-09T23:23:14.963Z,2.20
2018-09-09T23:25:43.314Z,2.20
2018-09-09T23:28:11.640Z,2.57
2018-09-09T23:30:39.965Z,2.20
2018-09-09T23:33:08.319Z,2.10
2018-09-09T23:35:36.609Z,2.63
2018-09-09T23:38:04.929Z,2.70
2018-09-09T23:40:33.289Z,2.43
2018-09-09T23:43:01.628Z,2.77
2018-09-09T23:45:30.033Z,2.77
2018-09-09T23:47:59.001Z,2.53
2018-09-09T23:50:27.325Z,2.97
2018-09-09T23:52:55.694Z,3.30
2018-09-09T23:55:24.011Z,3.10
2018-09-09T23:57:52.399Z,2.80
